Time;durP1;ratioP1;P1;durP2;ratioP2;P2;SDS_P1;SDS_P2;PMS_P1;PMS_P2;Temp;Humidity;BMP_temperature;BMP_pressure;BME280_temperature;BME280_humidity;BME280_pressure;Samples;Min_cycle;Max_cycle;Signal;HPM_P1;HPM_P2
2023/01/30 00:01:43;;;;;;;18.40;7.40;;;0.90;99.90;;;;;;4993598;28;20222;-70
2023/01/30 00:04:11;;;;;;;17.80;7.43;;;0.80;99.90;;;;;;5007526;28;20448;-70
2023/01/30 00:06:38;;;;;;;15.80;7.40;;;0.80;99.90;;;;;;5009723;28;20457;-70
2023/01/30 00:09:04;;;;;;;15.53;8.03;;;0.90;99.90;;;;;;4991551;28;20874;-70
2023/01/30 00:11:32;;;;;;;15.23;7.47;;;0.80;99.90;;;;;;4991136;28;20539;-70
2023/01/30 00:13:58;;;;;;;13.33;7.30;;;0.90;99.90;;;;;;5005510;28;20448;-70
2023/01/30 00:16:24;;;;;;;18.93;7.27;;;0.90;99.90;;;;;;5009506;28;21008;-70
2023/01/30 00:18:49;;;;;;;16.70;8.20;;;1.00;99.90;;;;;;5009891;28;20595;-70
2023/01/30 00:21:16;;;;;;;18.50;7.60;;;1.00;99.90;;;;;;5009911;28;20260;-70
2023/01/30 00:23:42;;;;;;;16.47;7.40;;;0.90;99.90;;;;;;4993778;28;20222;-71
2023/01/30 00:26:09;;;;;;;13.20;7.33;;;0.90;99.90;;;;;;5010109;28;20445;-70
2023/01/30 00:28:38;;;;;;;15.30;7.80;;;1.00;99.90;;;;;;4993230;28;20912;-70
2023/01/30 00:31:04;;;;;;;14.27;7.93;;;1.00;99.90;;;;;;5008697;28;20499;-71
2023/01/30 00:33:31;;;;;;;18.50;9.40;;;0.90;99.90;;;;;;5010035;28;20505;-70
2023/01/30 00:35:57;;;;;;;19.80;9.60;;;0.90;99.90;;;;;;4993225;28;20464;-70
2023/01/30 00:38:24;;;;;;;12.60;6.33;;;0.90;99.90;;;;;;5008424;28;20737;-71
2023/01/30 00:40:49;;;;;;;18.23;8.50;;;0.90;99.90;;;;;;5008857;28;20620;-70
2023/01/30 00:48:52;;;;;;;17.43;7.50;;;1.00;99.90;;;;;;5008031;28;20456;-70
2023/01/30 00:51:18;;;;;;;15.77;8.60;;;0.90;99.90;;;;;;4992847;28;20523;-71
2023/01/30 00:53:44;;;;;;;16.40;8.83;;;1.00;99.90;;;;;;4993300;28;20221;-69
2023/01/30 00:56:09;;;;;;;19.27;7.73;;;1.00;99.90;;;;;;5009226;28;20249;-70
2023/01/30 00:58:35;;;;;;;16.13;7.80;;;1.00;99.90;;;;;;5001604;28;20588;-69
2023/01/30 01:01:01;;;;;;;14.87;7.03;;;1.00;99.90;;;;;;5005446;28;20693;-67
2023/01/30 01:03:27;;;;;;;18.30;8.67;;;1.00;99.90;;;;;;5009443;28;20467;-68
2023/01/30 01:05:53;;;;;;;20.23;7.70;;;1.00;99.90;;;;;;4992286;28;20218;-67
2023/01/30 01:08:19;;;;;;;15.10;7.13;;;1.00;99.90;;;;;;4991919;28;20217;-68
2023/01/30 01:10:44;;;;;;;20.13;9.17;;;1.00;99.90;;;;;;5008111;28;20205;-69
2023/01/30 01:13:10;;;;;;;16.27;8.00;;;0.90;99.90;;;;;;5007356;28;20263;-69
2023/01/30 01:15:36;;;;;;;14.90;7.67;;;0.90;99.90;;;;;;5008594;28;20268;-70
2023/01/30 01:18:02;;;;;;;16.80;7.73;;;1.10;99.90;;;;;;4975922;28;20242;-69
2023/01/30 01:20:27;;;;;;;17.83;7.70;;;0.90;99.90;;;;;;4994216;28;20229;-69
2023/01/30 01:22:55;;;;;;;16.30;8.07;;;0.90;99.90;;;;;;5012557;28;20452;-69
2023/01/30 01:25:22;;;;;;;13.50;7.47;;;0.90;99.90;;;;;;4985010;28;20721;-69
2023/01/30 01:27:48;;;;;;;19.40;7.10;;;1.00;99.90;;;;;;5005270;28;20450;-69
2023/01/30 01:30:16;;;;;;;13.20;6.80;;;1.00;99.90;;;;;;5007865;28;20456;-70
2023/01/30 01:32:42;;;;;;;13.27;7.10;;;1.10;99.90;;;;;;5008156;28;20543;-69
2023/01/30 01:35:09;;;;;;;16.53;7.50;;;1.00;99.90;;;;;;5007922;28;20455;-69
2023/01/30 01:37:34;;;;;;;17.60;8.37;;;1.00;99.90;;;;;;5009995;28;20469;-69
2023/01/30 01:42:58;;;;;;;18.10;7.20;;;1.10;99.90;;;;;;5003979;28;20217;-70
2023/01/30 01:45:24;;;;;;;12.60;6.90;;;1.10;99.90;;;;;;4990951;28;20449;-70
2023/01/30 01:48:02;;;;;;;15.23;7.83;;;1.10;99.90;;;;;;4988182;28;20291;-69
2023/01/30 01:50:56;;;;;;;16.80;8.50;;;1.20;99.90;;;;;;5008691;28;20287;-69
2023/01/30 01:53:25;;;;;;;20.47;7.90;;;1.10;99.90;;;;;;5002745;28;20456;-70
2023/01/30 01:55:53;;;;;;;16.60;7.70;;;1.10;99.90;;;;;;5008988;28;20452;-69
2023/01/30 01:58:29;;;;;;;19.77;8.90;;;1.20;99.90;;;;;;5008090;28;20465;-69
2023/01/30 02:00:57;;;;;;;13.33;7.10;;;1.20;99.90;;;;;;4997996;28;20469;-69
2023/01/30 02:03:25;;;;;;;14.90;8.20;;;1.20;99.90;;;;;;5003165;28;20505;-70
2023/01/30 02:05:56;;;;;;;15.50;7.30;;;1.30;99.90;;;;;;5020951;28;20465;-69
2023/01/30 02:08:34;;;;;;;18.93;7.97;;;1.30;99.90;;;;;;4998280;28;20449;-69
2023/01/30 02:11:28;;;;;;;11.40;6.23;;;1.30;99.90;;;;;;4996380;28;20988;-69
2023/01/30 02:13:54;;;;;;;15.03;6.80;;;1.30;99.90;;;;;;4997904;28;20448;-70
2023/01/30 02:16:20;;;;;;;14.57;6.70;;;1.20;99.90;;;;;;5015257;28;20480;-69
2023/01/30 02:18:46;;;;;;;14.20;8.40;;;1.20;99.90;;;;;;5011466;28;20461;-69
2023/01/30 02:21:42;;;;;;;17.93;7.23;;;1.10;99.90;;;;;;4995398;28;20276;-69
2023/01/30 02:24:39;;;;;;;15.93;7.13;;;1.10;99.90;;;;;;4990472;28;20518;-69
2023/01/30 02:27:35;;;;;;;16.30;8.53;;;1.10;99.90;;;;;;5016080;28;20463;-68
2023/01/30 02:30:25;;;;;;;10.87;6.27;;;1.10;99.90;;;;;;5013159;28;20539;-69
2023/01/30 02:33:17;;;;;;;23.50;7.63;;;1.10;99.90;;;;;;4996150;28;20473;-69
2023/01/30 02:35:58;;;;;;;14.07;7.10;;;1.30;99.90;;;;;;5012461;28;20448;-69
2023/01/30 02:38:35;;;;;;;12.67;7.80;;;1.40;99.90;;;;;;4984310;28;20461;-70
2023/01/30 02:41:38;;;;;;;17.70;8.27;;;1.40;99.90;;;;;;5026150;28;20463;-70
2023/01/30 02:44:11;;;;;;;13.80;6.20;;;1.40;99.90;;;;;;4988587;28;20458;-69
2023/01/30 02:46:56;;;;;;;19.03;7.50;;;1.40;99.90;;;;;;5015163;28;20449;-70
2023/01/30 02:49:37;;;;;;;14.60;7.83;;;1.40;99.90;;;;;;5016080;28;20448;-70
2023/01/30 02:52:07;;;;;;;16.63;7.50;;;1.30;99.90;;;;;;5008682;28;20474;-70
2023/01/30 02:54:33;;;;;;;14.70;7.57;;;1.30;99.90;;;;;;5005704;28;20460;-69
2023/01/30 02:56:59;;;;;;;13.07;6.57;;;1.40;99.90;;;;;;5014229;28;20455;-69
2023/01/30 02:59:42;;;;;;;17.40;7.50;;;1.40;99.90;;;;;;4993084;28;20612;-69
2023/01/30 03:02:46;;;;;;;20.17;6.90;;;1.30;99.90;;;;;;4980946;28;20448;-69
2023/01/30 03:05:17;;;;;;;16.37;8.00;;;1.20;99.90;;;;;;5006589;28;20443;-70
2023/01/30 03:08:09;;;;;;;13.90;7.00;;;1.10;99.90;;;;;;5016701;28;20445;-69
2023/01/30 03:11:02;;;;;;;27.53;9.07;;;1.10;99.90;;;;;;5009014;28;20459;-69
2023/01/30 03:14:05;;;;;;;13.37;6.70;;;1.10;99.90;;;;;;4986398;28;20473;-68
2023/01/30 03:16:35;;;;;;;14.70;6.77;;;1.10;99.90;;;;;;4995328;28;20460;-68
2023/01/30 03:19:03;;;;;;;14.90;8.07;;;1.10;99.90;;;;;;5008828;28;20479;-69
2023/01/30 03:21:30;;;;;;;20.87;8.30;;;1.20;99.90;;;;;;5007100;28;20484;-69
2023/01/30 03:23:56;;;;;;;19.03;8.57;;;1.20;99.90;;;;;;5011376;28;20460;-69
2023/01/30 03:26:27;;;;;;;23.47;9.27;;;1.20;99.90;;;;;;4995796;28;20452;-69
2023/01/30 03:28:54;;;;;;;18.13;8.60;;;1.20;99.90;;;;;;4993836;28;20229;-69
2023/01/30 03:31:19;;;;;;;18.27;8.03;;;1.20;99.90;;;;;;5011396;28;20980;-69
2023/01/30 03:33:45;;;;;;;21.20;9.30;;;1.20;99.90;;;;;;5011577;28;20461;-69
2023/01/30 03:36:11;;;;;;;13.00;6.20;;;1.20;99.90;;;;;;5010275;28;20329;-69
2023/01/30 03:38:37;;;;;;;13.20;6.90;;;1.20;99.90;;;;;;5003953;28;20221;-69
2023/01/30 03:41:04;;;;;;;18.53;7.90;;;1.20;99.90;;;;;;5002883;28;20976;-69
2023/01/30 03:43:30;;;;;;;14.80;7.07;;;1.20;99.90;;;;;;5004906;28;20244;-69
2023/01/30 03:45:56;;;;;;;17.20;7.90;;;1.20;99.90;;;;;;4980242;28;20453;-69
2023/01/30 03:48:22;;;;;;;20.77;8.80;;;1.30;99.90;;;;;;5010323;28;20209;-69
2023/01/30 03:50:47;;;;;;;12.67;7.80;;;1.30;99.90;;;;;;5011064;28;20246;-69
2023/01/30 03:53:13;;;;;;;17.10;8.87;;;1.20;99.90;;;;;;5009854;28;20228;-70
2023/01/30 03:55:39;;;;;;;16.17;7.40;;;1.20;99.90;;;;;;4991452;28;20285;-69
2023/01/30 03:58:05;;;;;;;15.10;7.00;;;1.20;99.90;;;;;;4993228;28;20253;-70
2023/01/30 04:00:32;;;;;;;16.60;7.43;;;1.20;99.90;;;;;;4984524;28;20454;-70
2023/01/30 04:02:59;;;;;;;20.03;8.50;;;1.20;99.90;;;;;;4999884;28;20454;-69
2023/01/30 04:05:24;;;;;;;20.50;9.83;;;1.20;99.90;;;;;;5001815;28;20452;-70
2023/01/30 04:07:58;;;;;;;21.73;9.17;;;1.20;99.90;;;;;;5010741;28;20284;-69
2023/01/30 04:10:24;;;;;;;22.33;8.90;;;1.20;99.90;;;;;;5010422;28;20468;-70
2023/01/30 04:12:50;;;;;;;20.70;7.00;;;1.20;99.90;;;;;;5009217;28;20475;-69
2023/01/30 04:15:18;;;;;;;23.63;8.07;;;1.10;99.90;;;;;;5009982;28;20456;-69
2023/01/30 04:18:01;;;;;;;16.13;7.60;;;1.20;99.90;;;;;;5009921;28;20522;-69
2023/01/30 04:20:59;;;;;;;15.43;7.77;;;1.20;99.90;;;;;;5006555;28;20579;-69
2023/01/30 04:23:32;;;;;;;16.73;7.70;;;1.20;99.90;;;;;;4993470;28;20460;-69
2023/01/30 04:25:58;;;;;;;22.60;9.67;;;1.20;99.90;;;;;;4993517;28;20453;-70
2023/01/30 04:28:24;;;;;;;18.50;8.60;;;1.20;99.90;;;;;;4993380;28;20217;-69
2023/01/30 04:30:52;;;;;;;15.37;8.43;;;1.20;99.90;;;;;;4991721;28;20524;-69
2023/01/30 04:33:40;;;;;;;16.10;8.73;;;1.20;99.90;;;;;;5009382;28;20456;-69
2023/01/30 04:36:08;;;;;;;19.17;8.43;;;1.20;99.90;;;;;;5009810;28;20437;-69
2023/01/30 04:38:35;;;;;;;19.10;9.07;;;1.30;99.90;;;;;;4992090;28;20472;-67
2023/01/30 04:41:02;;;;;;;14.63;8.50;;;1.30;99.90;;;;;;4990303;28;20497;-68
2023/01/30 04:43:30;;;;;;;16.30;8.77;;;1.30;99.90;;;;;;5004685;28;21000;-69
2023/01/30 04:46:16;;;;;;;20.87;8.47;;;1.30;99.90;;;;;;5011082;28;20945;-69
2023/01/30 04:48:42;;;;;;;16.40;8.40;;;1.30;99.90;;;;;;4990440;28;20528;-68
2023/01/30 04:51:08;;;;;;;17.93;8.63;;;1.40;99.90;;;;;;5009464;28;20224;-69
2023/01/30 04:53:36;;;;;;;12.40;7.13;;;1.40;99.90;;;;;;4989643;28;20541;-69
2023/01/30 04:56:02;;;;;;;14.03;7.97;;;1.40;99.90;;;;;;4991341;28;20449;-69
2023/01/30 04:58:28;;;;;;;19.13;7.60;;;1.30;99.90;;;;;;5007882;28;20217;-68
2023/01/30 05:00:54;;;;;;;12.50;6.73;;;1.30;99.90;;;;;;4986575;28;20210;-69
2023/01/30 05:03:20;;;;;;;19.17;7.30;;;1.30;99.90;;;;;;5007158;28;20515;-69
2023/01/30 05:05:47;;;;;;;16.70;7.10;;;1.30;99.90;;;;;;5008781;28;20492;-69
2023/01/30 05:08:14;;;;;;;16.17;7.07;;;1.30;99.90;;;;;;5007463;28;20219;-69
2023/01/30 05:10:40;;;;;;;13.50;6.60;;;1.40;99.90;;;;;;4993106;28;20487;-69
2023/01/30 05:13:06;;;;;;;17.33;7.80;;;1.30;99.90;;;;;;4991478;28;20485;-69
2023/01/30 05:15:32;;;;;;;14.13;7.03;;;1.40;99.90;;;;;;5009169;28;20226;-69
2023/01/30 05:17:58;;;;;;;18.20;8.70;;;1.40;99.90;;;;;;5009152;28;20230;-69
2023/01/30 05:20:24;;;;;;;12.60;6.50;;;1.40;99.90;;;;;;4992224;28;20448;-70
2023/01/30 05:22:50;;;;;;;15.77;7.60;;;1.40;99.90;;;;;;5010322;28;20225;-69
2023/01/30 05:25:15;;;;;;;11.47;6.20;;;1.30;99.90;;;;;;4993038;28;20571;-69
2023/01/30 05:27:41;;;;;;;14.00;7.70;;;1.40;99.90;;;;;;5009575;28;20221;-70
2023/01/30 05:30:07;;;;;;;18.07;7.80;;;1.30;99.90;;;;;;5007198;28;20725;-70
2023/01/30 05:32:33;;;;;;;14.60;7.33;;;1.40;99.90;;;;;;4987826;28;20232;-69
2023/01/30 05:34:59;;;;;;;11.57;5.80;;;1.30;99.90;;;;;;5007482;28;20469;-69
2023/01/30 05:37:24;;;;;;;14.77;7.30;;;1.30;99.90;;;;;;5010230;28;20303;-69
2023/01/30 05:39:50;;;;;;;14.77;6.63;;;1.30;99.90;;;;;;5000441;28;20225;-69
2023/01/30 05:42:16;;;;;;;14.93;7.40;;;1.30;99.90;;;;;;5008729;28;20224;-69
2023/01/30 05:44:42;;;;;;;16.40;7.73;;;1.30;99.90;;;;;;5004521;28;20466;-69
2023/01/30 05:47:07;;;;;;;14.57;7.53;;;1.40;99.90;;;;;;5001566;28;20218;-70
2023/01/30 05:49:33;;;;;;;14.93;7.57;;;1.30;99.90;;;;;;5009243;28;20697;-68
2023/01/30 05:51:58;;;;;;;17.17;7.87;;;1.30;99.90;;;;;;5008112;28;20299;-70
2023/01/30 05:54:24;;;;;;;13.20;6.57;;;1.30;99.90;;;;;;5004849;28;20264;-70
2023/01/30 05:56:50;;;;;;;10.13;5.50;;;1.30;99.90;;;;;;5007682;28;20218;-69
2023/01/30 05:59:17;;;;;;;12.03;7.00;;;1.30;99.90;;;;;;4991438;28;20309;-70
2023/01/30 06:01:43;;;;;;;14.43;7.40;;;1.30;99.90;;;;;;5009029;28;20228;-69
2023/01/30 06:04:09;;;;;;;13.37;7.00;;;1.40;99.90;;;;;;5008486;28;20464;-70
2023/01/30 06:06:35;;;;;;;12.07;5.90;;;1.40;99.90;;;;;;5007211;28;20457;-70
2023/01/30 06:09:01;;;;;;;11.97;6.70;;;1.40;99.90;;;;;;5007547;28;20228;-70
2023/01/30 06:11:27;;;;;;;11.03;5.10;;;1.40;99.90;;;;;;5008430;28;20218;-70
2023/01/30 06:13:53;;;;;;;9.50;5.27;;;1.40;99.90;;;;;;4991158;28;20468;-69
2023/01/30 06:16:19;;;;;;;10.53;6.00;;;1.40;99.90;;;;;;4991631;28;20577;-70
2023/01/30 06:18:46;;;;;;;9.70;5.50;;;1.40;99.90;;;;;;5004445;28;20229;-70
2023/01/30 06:21:14;;;;;;;12.77;5.50;;;1.40;99.90;;;;;;5008204;28;20308;-69
2023/01/30 06:23:40;;;;;;;10.40;5.47;;;1.50;99.90;;;;;;5008246;28;20504;-70
2023/01/30 06:26:06;;;;;;;11.10;5.77;;;1.50;99.90;;;;;;5001209;28;20469;-70
2023/01/30 06:28:32;;;;;;;10.53;4.93;;;1.50;99.90;;;;;;5009441;28;20492;-70
2023/01/30 06:30:57;;;;;;;13.53;5.30;;;1.50;99.90;;;;;;4990118;28;20485;-69
2023/01/30 06:33:23;;;;;;;16.67;6.53;;;1.50;99.90;;;;;;4998932;28;20606;-68
2023/01/30 06:35:50;;;;;;;8.20;4.77;;;1.50;99.90;;;;;;4990985;28;20224;-70
2023/01/30 06:38:16;;;;;;;14.97;6.60;;;1.50;99.90;;;;;;4982759;28;20222;-70
2023/01/30 06:40:45;;;;;;;12.03;5.90;;;1.50;99.90;;;;;;5006229;28;20449;-70
2023/01/30 06:43:10;;;;;;;16.87;6.80;;;1.50;99.90;;;;;;5002295;28;20255;-71
2023/01/30 06:45:36;;;;;;;11.77;6.47;;;1.50;99.90;;;;;;5002451;28;20473;-70
2023/01/30 06:48:02;;;;;;;13.93;6.27;;;1.60;99.90;;;;;;5004088;28;20231;-69
2023/01/30 06:50:29;;;;;;;15.00;7.90;;;1.50;99.90;;;;;;4992095;28;20233;-70
2023/01/30 06:52:55;;;;;;;9.00;6.20;;;1.50;99.90;;;;;;5007661;28;20531;-70
2023/01/30 06:55:23;;;;;;;12.07;6.63;;;1.50;99.90;;;;;;4995635;28;20457;-70
2023/01/30 06:57:59;;;;;;;13.07;7.10;;;1.50;99.90;;;;;;5009351;28;20558;-68
2023/01/30 07:00:24;;;;;;;13.50;7.20;;;1.50;99.90;;;;;;4991271;28;20495;-70
2023/01/30 07:02:50;;;;;;;8.83;5.83;;;1.50;99.90;;;;;;4994072;28;20554;-70
2023/01/30 07:05:16;;;;;;;11.97;6.27;;;1.50;99.90;;;;;;4993669;28;20218;-70
2023/01/30 07:07:41;;;;;;;12.33;6.73;;;1.60;99.90;;;;;;5012093;28;20221;-69
2023/01/30 07:10:08;;;;;;;11.17;5.57;;;1.60;99.90;;;;;;5011811;28;20244;-69
2023/01/30 07:12:33;;;;;;;13.07;7.03;;;1.60;99.90;;;;;;4994541;28;20308;-70
2023/01/30 07:14:59;;;;;;;12.33;7.07;;;1.60;99.90;;;;;;5008294;28;20607;-70
2023/01/30 07:17:25;;;;;;;11.37;6.53;;;1.60;99.90;;;;;;5002521;28;20221;-69
2023/01/30 07:19:50;;;;;;;8.93;5.43;;;1.60;99.90;;;;;;5008880;28;20229;-70
2023/01/30 07:22:16;;;;;;;15.23;7.07;;;1.60;99.90;;;;;;4990279;28;20255;-69
2023/01/30 07:24:42;;;;;;;8.70;5.47;;;1.60;99.90;;;;;;4992636;28;20241;-69
2023/01/30 07:27:09;;;;;;;12.70;6.40;;;1.60;99.90;;;;;;4997770;28;20229;-70
2023/01/30 07:29:36;;;;;;;12.97;6.90;;;1.60;99.90;;;;;;4986447;28;20218;-71
2023/01/30 07:32:04;;;;;;;11.60;6.60;;;1.60;99.90;;;;;;4991563;28;20482;-70
2023/01/30 07:34:29;;;;;;;16.90;6.60;;;1.60;99.90;;;;;;4992840;28;20464;-69
2023/01/30 07:36:55;;;;;;;13.17;7.00;;;1.60;99.90;;;;;;4992946;28;20445;-68
2023/01/30 07:39:20;;;;;;;13.40;7.30;;;1.60;99.90;;;;;;5006508;28;20263;-70
2023/01/30 07:41:46;;;;;;;10.47;5.70;;;1.70;99.90;;;;;;5004825;28;20218;-70
2023/01/30 07:44:12;;;;;;;12.33;6.90;;;1.60;99.90;;;;;;4992737;28;20287;-71
2023/01/30 07:46:38;;;;;;;10.17;6.23;;;1.60;99.90;;;;;;4994763;28;20708;-70
2023/01/30 07:49:06;;;;;;;13.60;6.83;;;1.70;99.90;;;;;;5005206;28;20469;-70
2023/01/30 07:51:32;;;;;;;26.90;14.13;;;1.70;99.90;;;;;;5011126;28;20457;-70
2023/01/30 07:53:58;;;;;;;39.97;18.00;;;1.70;99.90;;;;;;5007183;28;20584;-69
2023/01/30 07:56:23;;;;;;;20.03;11.40;;;1.70;99.90;;;;;;5009396;28;20461;-70
2023/01/30 07:58:50;;;;;;;17.53;6.30;;;1.70;99.90;;;;;;5009343;28;20413;-71
2023/01/30 08:01:16;;;;;;;12.73;7.20;;;1.70;99.90;;;;;;5010706;28;20301;-70
2023/01/30 08:03:44;;;;;;;15.60;7.57;;;1.70;99.90;;;;;;5009654;28;20464;-71
2023/01/30 08:06:11;;;;;;;9.17;4.97;;;1.80;99.90;;;;;;5005273;28;20472;-70
2023/01/30 08:08:37;;;;;;;12.20;6.43;;;1.80;99.90;;;;;;4989128;28;20461;-70
2023/01/30 08:11:02;;;;;;;11.83;5.93;;;1.80;99.90;;;;;;5008808;28;20889;-70
2023/01/30 08:13:28;;;;;;;8.47;5.00;;;1.80;99.90;;;;;;4992299;28;20264;-68
2023/01/30 08:15:54;;;;;;;11.90;6.10;;;1.80;99.90;;;;;;5010682;28;20304;-70
2023/01/30 08:18:19;;;;;;;9.63;4.77;;;1.90;99.90;;;;;;5008455;28;20225;-71
2023/01/30 08:20:45;;;;;;;11.17;5.43;;;1.90;99.90;;;;;;5009575;28;20221;-70
2023/01/30 08:23:11;;;;;;;6.77;4.97;;;1.90;99.90;;;;;;4991544;28;20259;-70
2023/01/30 08:25:36;;;;;;;9.80;5.63;;;1.90;99.90;;;;;;5008512;28;20219;-71
2023/01/30 08:28:03;;;;;;;8.10;5.33;;;1.90;99.90;;;;;;5008149;28;20707;-71
2023/01/30 08:30:29;;;;;;;10.17;5.00;;;1.90;99.90;;;;;;5007337;28;20225;-69
2023/01/30 08:32:56;;;;;;;13.07;7.87;;;1.90;99.90;;;;;;5009218;28;20453;-70
2023/01/30 08:35:21;;;;;;;17.00;9.20;;;2.00;99.90;;;;;;4996442;28;20444;-70
2023/01/30 08:37:47;;;;;;;37.23;17.67;;;2.00;99.90;;;;;;5007185;28;20473;-70
2023/01/30 08:40:13;;;;;;;36.90;17.43;;;2.00;99.90;;;;;;4983000;28;20275;-70
2023/01/30 08:42:39;;;;;;;20.73;10.57;;;2.00;99.90;;;;;;5007177;28;20631;-69
2023/01/30 08:45:05;;;;;;;26.10;13.97;;;2.00;99.90;;;;;;5005537;28;20461;-70
2023/01/30 08:47:31;;;;;;;15.73;9.43;;;2.10;99.90;;;;;;5008732;28;20217;-70
2023/01/30 08:49:57;;;;;;;11.97;7.97;;;2.10;99.90;;;;;;4999950;28;20509;-70
2023/01/30 08:52:22;;;;;;;6.23;4.97;;;2.10;99.90;;;;;;4992109;28;20224;-71
2023/01/30 08:54:48;;;;;;;6.93;4.63;;;2.10;99.90;;;;;;5012832;28;20252;-70
2023/01/30 08:57:14;;;;;;;5.90;3.57;;;2.10;99.90;;;;;;5013730;28;20249;-70
2023/01/30 08:59:40;;;;;;;4.87;3.20;;;2.20;99.90;;;;;;4989027;28;20214;-70
2023/01/30 09:02:11;;;;;;;5.70;3.63;;;2.20;99.90;;;;;;5006600;28;20292;-70
2023/01/30 09:04:37;;;;;;;7.37;3.40;;;2.20;99.90;;;;;;5007743;28;20464;-71
2023/01/30 09:07:03;;;;;;;4.90;3.03;;;2.20;99.90;;;;;;5000870;28;20453;-70
2023/01/30 09:09:29;;;;;;;5.27;2.67;;;2.20;99.90;;;;;;5007071;28;20272;-70
2023/01/30 09:11:55;;;;;;;3.67;2.90;;;2.30;99.90;;;;;;5008933;28;20464;-71
2023/01/30 09:14:21;;;;;;;5.37;3.10;;;2.30;99.90;;;;;;5008975;28;20476;-70
2023/01/30 09:16:54;;;;;;;3.60;2.87;;;2.40;99.90;;;;;;4990064;28;20289;-70
2023/01/30 09:19:26;;;;;;;3.27;2.57;;;2.40;99.90;;;;;;5014064;28;20268;-70
2023/01/30 09:21:52;;;;;;;4.40;2.27;;;2.40;99.90;;;;;;5007853;28;20480;-71
2023/01/30 09:24:19;;;;;;;5.37;3.40;;;2.50;99.90;;;;;;4986984;28;20520;-70
2023/01/30 09:26:44;;;;;;;5.97;3.87;;;2.50;99.90;;;;;;5004541;28;20448;-70
2023/01/30 09:29:14;;;;;;;3.63;2.90;;;2.50;99.90;;;;;;5006473;28;20536;-71
2023/01/30 09:31:40;;;;;;;4.23;2.90;;;2.60;99.90;;;;;;5007392;28;20310;-69
2023/01/30 09:34:06;;;;;;;3.43;2.80;;;2.60;99.90;;;;;;4989297;28;20461;-71
2023/01/30 09:36:32;;;;;;;2.80;2.07;;;2.60;99.90;;;;;;5001321;28;20478;-70
2023/01/30 09:38:57;;;;;;;1.63;1.50;;;2.80;99.90;;;;;;5004442;28;20525;-70
2023/01/30 09:41:51;;;;;;;2.60;2.23;;;2.80;99.90;;;;;;5009375;28;20222;-70
2023/01/30 09:44:31;;;;;;;2.23;1.83;;;2.90;99.90;;;;;;5003856;28;20240;-71
2023/01/30 09:47:08;;;;;;;2.23;1.70;;;3.00;99.90;;;;;;4974537;28;20463;-69
2023/01/30 09:50:21;;;;;;;2.47;2.27;;;3.00;99.90;;;;;;5009859;28;20460;-70
2023/01/30 09:53:12;;;;;;;2.10;1.70;;;3.10;99.90;;;;;;4970899;28;20466;-71
2023/01/30 09:55:40;;;;;;;2.27;2.07;;;3.20;99.90;;;;;;5009612;28;20554;-70
2023/01/30 09:58:16;;;;;;;2.93;2.17;;;3.30;99.90;;;;;;4988371;28;20560;-70
2023/01/30 10:00:42;;;;;;;2.63;2.27;;;3.40;99.90;;;;;;5007128;28;20463;-70
2023/01/30 10:03:37;;;;;;;3.37;2.10;;;3.40;99.90;;;;;;4993936;28;20456;-71
2023/01/30 10:06:11;;;;;;;1.50;1.20;;;3.40;99.90;;;;;;4993518;28;20222;-71
2023/01/30 10:08:43;;;;;;;1.57;1.07;;;3.50;99.90;;;;;;5004551;28;20536;-70
2023/01/30 10:11:39;;;;;;;1.17;1.07;;;3.50;99.90;;;;;;5003765;28;20464;-70
2023/01/30 10:14:20;;;;;;;2.43;1.63;;;3.60;99.90;;;;;;5005997;28;20463;-71
2023/01/30 10:16:45;;;;;;;2.40;1.80;;;3.60;99.90;;;;;;4990883;28;20451;-71
2023/01/30 10:19:20;;;;;;;2.77;2.10;;;3.80;99.90;;;;;;5002169;28;20875;-70
2023/01/30 10:21:51;;;;;;;3.80;2.40;;;4.00;99.90;;;;;;5007725;28;20303;-71
2023/01/30 10:24:30;;;;;;;2.53;1.97;;;4.10;99.90;;;;;;4994436;28;20457;-71
2023/01/30 10:26:56;;;;;;;2.93;2.13;;;4.20;99.90;;;;;;5007292;28;20467;-70
2023/01/30 10:29:24;;;;;;;2.80;2.30;;;4.20;99.90;;;;;;5002428;28;20450;-71
2023/01/30 10:32:29;;;;;;;2.37;2.17;;;4.40;99.90;;;;;;5011737;28;20215;-71
2023/01/30 10:34:58;;;;;;;2.87;1.67;;;4.50;99.90;;;;;;4998654;28;20452;-72
2023/01/30 10:37:32;;;;;;;2.80;1.80;;;4.60;99.90;;;;;;4992778;28;20461;-71
2023/01/30 10:40:17;;;;;;;2.30;1.70;;;4.60;99.90;;;;;;5008696;28;20477;-71
2023/01/30 10:42:55;;;;;;;1.60;1.50;;;4.60;99.90;;;;;;5008389;28;20460;-71
2023/01/30 10:45:34;;;;;;;2.63;1.63;;;4.70;99.90;;;;;;5002435;28;20445;-71
2023/01/30 10:48:21;;;;;;;2.30;1.50;;;4.80;99.90;;;;;;5008821;28;20581;-70
2023/01/30 10:51:01;;;;;;;1.43;1.33;;;4.80;99.90;;;;;;4989940;28;20999;-71
2023/01/30 10:53:34;;;;;;;1.70;1.60;;;4.90;99.90;;;;;;5009053;28;20473;-71
2023/01/30 10:56:12;;;;;;;2.03;1.63;;;5.00;99.90;;;;;;5006383;28;20552;-70
2023/01/30 10:58:53;;;;;;;3.07;1.40;;;5.20;99.90;;;;;;5003628;28;20509;-71
2023/01/30 11:01:24;;;;;;;1.70;1.40;;;5.30;99.90;;;;;;4988858;28;20527;-70
2023/01/30 11:04:00;;;;;;;2.43;1.70;;;5.40;99.90;;;;;;5003022;28;20488;-70
2023/01/30 11:06:26;;;;;;;2.17;1.40;;;5.60;99.90;;;;;;5001726;28;20452;-70
2023/01/30 11:08:53;;;;;;;1.63;1.27;;;5.70;99.90;;;;;;5002095;28;21051;-71
2023/01/30 11:11:50;;;;;;;1.20;1.10;;;5.80;99.90;;;;;;5003825;28;20466;-72
2023/01/30 11:14:16;;;;;;;2.27;1.70;;;5.80;99.90;;;;;;5007193;28;20457;-71
2023/01/30 11:16:53;;;;;;;3.07;1.80;;;5.80;99.90;;;;;;4990300;28;20529;-71
2023/01/30 11:19:32;;;;;;;3.23;1.80;;;5.70;99.90;;;;;;5002519;28;20518;-71
2023/01/30 11:22:05;;;;;;;4.60;1.93;;;5.70;99.90;;;;;;5001438;28;20467;-71
2023/01/30 11:24:39;;;;;;;2.80;1.83;;;5.60;99.90;;;;;;5005199;28;20464;-69
2023/01/30 11:27:20;;;;;;;3.27;2.03;;;5.60;99.90;;;;;;5005557;28;20454;-71
2023/01/30 11:29:46;;;;;;;4.93;2.87;;;5.50;99.90;;;;;;4990612;28;20538;-71
2023/01/30 11:32:24;;;;;;;7.47;2.70;;;5.50;99.90;;;;;;5007956;28;20477;-71
2023/01/30 11:35:08;;;;;;;21.53;11.27;;;5.40;99.90;;;;;;4990652;28;20838;-71
2023/01/30 11:37:36;;;;;;;10.47;6.23;;;5.40;99.90;;;;;;5008888;28;20478;-71
2023/01/30 11:40:16;;;;;;;4.57;3.13;;;5.40;99.90;;;;;;5009126;28;21088;-72
2023/01/30 11:42:50;;;;;;;3.80;3.17;;;5.40;99.90;;;;;;5008278;28;20445;-72
2023/01/30 11:45:24;;;;;;;3.67;3.20;;;5.40;99.90;;;;;;5000324;28;20830;-72
2023/01/30 11:47:54;;;;;;;5.07;3.30;;;5.40;99.90;;;;;;5008876;28;20461;-70
2023/01/30 11:50:25;;;;;;;2.73;1.90;;;5.40;99.90;;;;;;5009923;28;20469;-72
2023/01/30 11:52:51;;;;;;;2.60;2.40;;;5.40;99.90;;;;;;5007790;28;20519;-72
2023/01/30 11:55:19;;;;;;;2.77;1.73;;;5.30;99.90;;;;;;5009655;28;20473;-71
2023/01/30 11:57:57;;;;;;;3.33;1.90;;;5.40;99.90;;;;;;5010251;28;20467;-71
2023/01/30 12:00:25;;;;;;;2.87;1.77;;;5.40;99.90;;;;;;4992124;28;20477;-71
2023/01/30 12:02:52;;;;;;;3.50;1.90;;;5.40;99.90;;;;;;5008265;28;20557;-71
2023/01/30 12:05:23;;;;;;;2.90;2.30;;;5.40;99.90;;;;;;5009751;28;20450;-71
2023/01/30 12:07:51;;;;;;;2.73;1.83;;;5.30;99.90;;;;;;4990964;28;20458;-71
2023/01/30 12:10:22;;;;;;;4.17;2.60;;;5.40;99.90;;;;;;5004599;28;21197;-72
2023/01/30 12:12:51;;;;;;;2.50;1.90;;;5.40;99.90;;;;;;5007290;28;20460;-72
2023/01/30 12:15:26;;;;;;;3.90;1.97;;;5.50;99.90;;;;;;4991779;28;20465;-71
2023/01/30 12:18:22;;;;;;;2.13;1.80;;;5.50;99.90;;;;;;4989568;28;20477;-70
2023/01/30 12:21:11;;;;;;;1.87;1.67;;;5.60;99.90;;;;;;5007295;28;20464;-71
2023/01/30 12:23:59;;;;;;;3.90;1.67;;;5.60;99.90;;;;;;5007401;28;20473;-71
2023/01/30 12:26:27;;;;;;;1.47;1.20;;;5.70;99.90;;;;;;5010486;28;20444;-72
2023/01/30 12:28:57;;;;;;;1.60;1.50;;;5.90;99.90;;;;;;4987920;28;20535;-72
2023/01/30 12:31:32;;;;;;;1.50;1.40;;;5.90;99.90;;;;;;5007078;28;20973;-71
2023/01/30 12:33:58;;;;;;;1.20;1.10;;;6.00;99.90;;;;;;5007025;28;20470;-71
2023/01/30 12:36:47;;;;;;;6.00;1.87;;;6.20;99.90;;;;;;4989875;28;20449;-72
2023/01/30 12:40:06;;;;;;;2.13;1.33;;;6.10;99.90;;;;;;4990237;28;20472;-72
2023/01/30 12:42:41;;;;;;;1.23;1.13;;;6.00;99.90;;;;;;4965732;28;20465;-71
2023/01/30 12:45:28;;;;;;;1.87;1.47;;;6.00;99.90;;;;;;5005349;28;20453;-71
2023/01/30 12:48:02;;;;;;;3.00;1.90;;;6.00;99.90;;;;;;5001711;28;20459;-71
2023/01/30 12:50:58;;;;;;;2.30;1.47;;;6.00;99.90;;;;;;5008930;28;20472;-71
2023/01/30 12:53:42;;;;;;;1.13;1.13;;;6.00;99.90;;;;;;5007610;28;20489;-72
2023/01/30 12:56:26;;;;;;;1.33;1.13;;;6.00;99.90;;;;;;5001130;28;21491;-72
2023/01/30 12:59:29;;;;;;;3.80;1.20;;;6.00;99.90;;;;;;4982710;28;20478;-72
2023/01/30 13:02:27;;;;;;;2.43;1.30;;;6.00;99.90;;;;;;4988894;28;20454;-71
2023/01/30 13:05:20;;;;;;;2.90;2.00;;;5.90;99.90;;;;;;4991142;28;20469;-72
2023/01/30 13:07:53;;;;;;;2.90;1.83;;;5.90;99.90;;;;;;4988332;28;20541;-71
2023/01/30 13:10:47;;;;;;;2.90;1.93;;;5.90;99.90;;;;;;5007424;28;20461;-72
2023/01/30 13:13:31;;;;;;;5.63;2.07;;;5.90;99.90;;;;;;4997381;28;20454;-71
2023/01/30 13:16:14;;;;;;;4.93;2.13;;;6.00;99.90;;;;;;5007587;28;20474;-72
2023/01/30 13:18:52;;;;;;;4.00;1.83;;;6.10;99.90;;;;;;5005420;28;20493;-71
2023/01/30 13:21:28;;;;;;;6.37;2.17;;;6.10;99.90;;;;;;5004393;28;20525;-72